createdAt,value
2023-04-22T00:00:12.131Z,70.60
2023-04-22T00:02:41.074Z,70.30
2023-04-22T00:05:13.411Z,70.70
2023-04-22T00:07:44.067Z,71.00
2023-04-22T00:10:13.141Z,71.10
2023-04-22T00:12:41.767Z,71.10
2023-04-22T00:15:13.238Z,71.10
2023-04-22T00:17:42.776Z,71.60
2023-04-22T00:20:12.813Z,72.20
2023-04-22T00:22:41.479Z,71.60
2023-04-22T00:25:10.820Z,72.40
2023-04-22T00:27:39.678Z,70.90
2023-04-22T00:30:12.228Z,71.30
2023-04-22T00:32:41.165Z,71.40
2023-04-22T00:35:10.049Z,71.00
2023-04-22T00:37:38.645Z,71.20
2023-04-22T00:40:08.742Z,71.20
2023-04-22T00:42:38.961Z,71.20
2023-04-22T00:45:17.844Z,71.20
2023-04-22T00:47:47.273Z,71.40
2023-04-22T00:50:16.431Z,71.40
2023-04-22T00:52:44.961Z,71.40
2023-04-22T00:55:14.223Z,72.20
2023-04-22T00:57:43.733Z,71.90
2023-04-22T01:00:15.555Z,71.70
2023-04-22T01:02:44.210Z,71.70
2023-04-22T01:05:13.383Z,71.50
2023-04-22T01:07:41.813Z,71.20
2023-04-22T01:10:13.046Z,71.50
2023-04-22T01:12:41.744Z,71.30
2023-04-22T01:15:11.333Z,70.90
2023-04-22T01:17:41.332Z,71.20
2023-04-22T01:20:11.721Z,71.60
2023-04-22T01:22:43.946Z,71.10
2023-04-22T01:25:14.746Z,71.80
2023-04-22T01:27:44.171Z,71.20
2023-04-22T01:30:13.670Z,71.10
2023-04-22T01:32:42.976Z,71.30
2023-04-22T01:35:11.928Z,71.60
2023-04-22T01:37:40.919Z,72.00
2023-04-22T01:40:11.620Z,72.20
2023-04-22T01:42:41.393Z,71.70
2023-04-22T01:45:10.107Z,72.10
2023-04-22T01:47:39.156Z,71.70
2023-04-22T01:50:08.744Z,72.00
2023-04-22T01:52:37.694Z,71.70
2023-04-22T01:55:07.418Z,72.10
2023-04-22T01:57:36.331Z,72.00
2023-04-22T02:00:07.747Z,72.80
2023-04-22T02:02:36.597Z,71.60
2023-04-22T02:05:06.675Z,71.40
2023-04-22T02:07:36.325Z,71.90
2023-04-22T02:10:05.378Z,72.20
2023-04-22T02:12:33.855Z,72.60
2023-04-22T02:15:02.338Z,72.80
2023-04-22T02:17:32.414Z,72.60
2023-04-22T02:20:01.389Z,73.00
2023-04-22T02:22:30.447Z,73.00
2023-04-22T02:24:59.414Z,72.70
2023-04-22T02:27:28.217Z,72.50
2023-04-22T02:29:56.609Z,72.60
2023-04-22T02:32:25.440Z,73.10
2023-04-22T02:34:55.591Z,72.60
2023-04-22T02:37:24.334Z,73.00
2023-04-22T02:39:53.288Z,72.90
2023-04-22T02:42:22.108Z,73.10
2023-04-22T02:44:50.873Z,72.90
2023-04-22T02:47:19.321Z,73.40
2023-04-22T02:49:48.086Z,73.40
2023-04-22T02:52:18.509Z,73.20
2023-04-22T02:54:47.074Z,73.50
2023-04-22T02:57:15.859Z,73.50
2023-04-22T02:59:44.621Z,73.30
2023-04-22T03:02:13.176Z,73.30
2023-04-22T03:04:42.266Z,73.50
2023-04-22T03:07:10.964Z,73.10
2023-04-22T03:09:41.589Z,72.60
2023-04-22T03:12:11.338Z,73.20
2023-04-22T03:14:40.344Z,73.30
2023-04-22T03:17:09.121Z,72.90
2023-04-22T03:19:37.832Z,73.10
2023-04-22T03:22:06.697Z,73.00
2023-04-22T03:24:35.328Z,73.50
2023-04-22T03:27:06.220Z,74.40
2023-04-22T03:29:35.085Z,73.90
2023-04-22T03:32:03.950Z,73.90
2023-04-22T03:34:33.350Z,74.50
2023-04-22T03:37:02.952Z,74.20
2023-04-22T03:39:31.524Z,74.80
2023-04-22T03:41:59.956Z,73.50
2023-04-22T03:44:29.788Z,73.60
2023-04-22T03:46:58.109Z,73.40
2023-04-22T03:49:27.391Z,74.80
2023-04-22T03:51:55.932Z,74.00
2023-04-22T03:54:25.254Z,73.90
2023-04-22T03:56:54.382Z,73.80
2023-04-22T03:59:23.448Z,73.90
2023-04-22T04:01:54.635Z,73.90
2023-04-22T04:04:24.445Z,73.40
2023-04-22T04:06:53.139Z,73.60
2023-04-22T04:09:21.937Z,72.90
2023-04-22T04:11:50.504Z,73.10
2023-04-22T04:14:19.345Z,73.60
2023-04-22T04:16:48.314Z,73.90
2023-04-22T04:19:18.791Z,73.60
2023-04-22T04:21:47.519Z,74.30
2023-04-22T04:24:16.063Z,74.90
2023-04-22T04:26:44.749Z,74.40
2023-04-22T04:29:13.627Z,75.00
2023-04-22T04:31:42.911Z,74.30
2023-04-22T04:34:11.852Z,74.30
2023-04-22T04:36:41.830Z,74.20
2023-04-22T04:39:10.853Z,74.30
2023-04-22T04:41:41.265Z,74.40
2023-04-22T04:44:10.398Z,74.40
2023-04-22T04:46:38.972Z,75.20
2023-04-22T04:49:12.716Z,74.50
2023-04-22T04:51:42.522Z,74.40
2023-04-22T04:54:11.161Z,74.40
2023-04-22T04:56:39.704Z,74.30
2023-04-22T04:59:08.508Z,74.40
2023-04-22T05:01:37.237Z,75.00
2023-04-22T05:04:06.411Z,74.20
2023-04-22T05:06:35.101Z,74.10
2023-04-22T05:09:05.572Z,73.90
2023-04-22T05:11:34.137Z,74.10
2023-04-22T05:14:03.705Z,73.90
2023-04-22T05:16:32.326Z,73.90
2023-04-22T05:19:01.159Z,73.70
2023-04-22T05:21:29.863Z,73.70
2023-04-22T05:23:58.308Z,73.90
2023-04-22T05:26:28.502Z,74.20
2023-04-22T05:28:57.284Z,74.90
2023-04-22T05:31:25.805Z,74.00
2023-04-22T05:33:54.572Z,74.10
2023-04-22T05:36:23.416Z,73.70
2023-04-22T05:38:51.938Z,72.60
2023-04-22T05:41:20.697Z,70.10
2023-04-22T05:43:50.701Z,72.50
2023-04-22T05:46:19.269Z,71.40
2023-04-22T05:48:48.835Z,72.70
2023-04-22T05:51:17.681Z,72.00
2023-04-22T05:53:46.108Z,72.40
2023-04-22T05:56:15.098Z,71.00
2023-04-22T05:58:43.924Z,68.00
2023-04-22T06:01:14.197Z,68.20
2023-04-22T06:03:43.128Z,63.60
2023-04-22T06:06:12.098Z,63.40
2023-04-22T06:08:40.639Z,63.70
2023-04-22T06:11:09.256Z,58.60
2023-04-22T06:13:38.020Z,60.80
2023-04-22T06:18:38.879Z,58.70
2023-04-22T06:21:07.735Z,59.80
2023-04-22T06:23:36.302Z,60.10
2023-04-22T06:26:05.571Z,57.30
2023-04-22T06:28:34.184Z,55.80
2023-04-22T06:31:03.497Z,55.50
2023-04-22T06:33:32.361Z,50.70
2023-04-22T06:36:02.595Z,47.00
2023-04-22T06:38:31.455Z,48.70
2023-04-22T06:41:00.565Z,49.60
2023-04-22T06:43:29.109Z,48.40
2023-04-22T06:45:57.937Z,46.30
2023-04-22T06:48:27.456Z,43.30
2023-04-22T06:50:56.148Z,43.80
2023-04-22T06:53:28.134Z,41.80
2023-04-22T06:55:56.966Z,39.70
2023-04-22T06:58:25.956Z,40.40
2023-04-22T07:00:54.511Z,39.10
2023-04-22T07:03:23.268Z,37.30
2023-04-22T07:05:51.930Z,37.10
2023-04-22T07:08:21.150Z,37.60
2023-04-22T07:10:51.150Z,37.10
2023-04-22T07:13:19.970Z,38.50
2023-04-22T07:15:48.630Z,36.40
2023-04-22T07:18:17.321Z,35.80
2023-04-22T07:20:45.889Z,35.90
2023-04-22T07:23:14.643Z,33.70
2023-04-22T07:25:43.175Z,33.40
2023-04-22T07:28:13.349Z,32.60
2023-04-22T07:30:41.903Z,32.90
2023-04-22T07:33:10.426Z,31.10
2023-04-22T07:35:38.930Z,31.80
2023-04-22T07:38:08.185Z,30.30
2023-04-22T07:40:38.587Z,31.40
2023-04-22T07:43:07.375Z,30.80
2023-04-22T07:45:37.420Z,30.50
2023-04-22T07:48:06.609Z,30.50
2023-04-22T07:50:36.332Z,30.00
2023-04-22T07:53:05.963Z,29.30
2023-04-22T07:55:35.057Z,29.60
2023-04-22T07:58:06.439Z,29.90
2023-04-22T08:00:37.060Z,29.60
2023-04-22T08:03:06.522Z,28.80
2023-04-22T08:05:35.411Z,28.20
2023-04-22T08:08:04.149Z,29.10
2023-04-22T08:10:33.514Z,28.90
2023-04-22T08:13:02.573Z,28.50
2023-04-22T08:15:31.684Z,26.90
2023-04-22T08:18:02.111Z,27.80
2023-04-22T08:20:30.848Z,27.70
2023-04-22T08:23:00.540Z,27.30
2023-04-22T08:25:29.616Z,27.30
2023-04-22T08:27:58.771Z,27.60
2023-04-22T08:30:27.728Z,28.20
2023-04-22T08:32:56.254Z,26.40
2023-04-22T08:35:26.571Z,27.10
2023-04-22T08:37:55.254Z,27.60
2023-04-22T08:40:23.946Z,28.10
2023-04-22T08:42:53.376Z,27.80
2023-04-22T08:45:22.784Z,26.40
2023-04-22T08:47:51.849Z,26.00
2023-04-22T08:50:21.996Z,28.50
2023-04-22T08:52:52.456Z,27.80
2023-04-22T08:55:21.570Z,27.70
2023-04-22T08:57:51.094Z,26.60
2023-04-22T09:00:20.635Z,27.00
2023-04-22T09:02:50.572Z,26.20
2023-04-22T09:05:21.325Z,26.60
2023-04-22T09:07:51.840Z,27.80
2023-04-22T09:10:21.344Z,27.10
2023-04-22T09:12:50.860Z,24.50
2023-04-22T09:15:19.837Z,24.50
2023-04-22T09:17:48.749Z,25.50
2023-04-22T09:20:18.850Z,23.60
2023-04-22T09:22:49.796Z,24.30
2023-04-22T09:25:21.606Z,23.20
2023-04-22T09:27:51.787Z,24.90
2023-04-22T09:30:25.533Z,23.90
2023-04-22T09:32:56.225Z,24.40
2023-04-22T09:35:30.191Z,23.50
2023-04-22T09:37:59.700Z,23.40
2023-04-22T09:40:31.416Z,22.80
2023-04-22T09:43:03.246Z,23.80
2023-04-22T09:45:35.350Z,22.30
2023-04-22T09:48:08.238Z,22.80
2023-04-22T09:50:37.862Z,23.90
2023-04-22T09:53:07.473Z,22.70
2023-04-22T09:55:39.205Z,23.70
2023-04-22T09:58:09.819Z,22.60
2023-04-22T10:00:42.598Z,24.20
2023-04-22T10:03:11.692Z,24.70
2023-04-22T10:05:41.518Z,24.00
2023-04-22T10:08:11.852Z,22.80
2023-04-22T10:10:42.468Z,22.80
2023-04-22T10:13:11.452Z,22.80
2023-04-22T10:15:43.614Z,22.60
2023-04-22T10:18:15.150Z,22.60
2023-04-22T10:20:45.439Z,21.30
2023-04-22T10:23:16.556Z,22.30
2023-04-22T10:25:49.587Z,21.70
2023-04-22T10:28:19.300Z,21.50
2023-04-22T10:30:48.361Z,21.00
2023-04-22T10:33:39.745Z,23.00
2023-04-22T10:36:10.943Z,22.40
2023-04-22T10:38:41.386Z,21.90
2023-04-22T10:41:16.592Z,21.80
2023-04-22T10:43:47.282Z,21.60
2023-04-22T10:46:57.327Z,22.00
2023-04-22T10:49:27.379Z,22.60
2023-04-22T10:51:58.482Z,20.80
2023-04-22T10:54:59.446Z,20.40
2023-04-22T10:57:43.914Z,21.10
2023-04-22T11:00:52.448Z,21.50
2023-04-22T11:03:30.126Z,22.40
2023-04-22T11:06:14.906Z,23.20
2023-04-22T11:08:46.823Z,21.10
2023-04-22T11:11:17.769Z,20.60
2023-04-22T11:13:51.002Z,21.50
2023-04-22T11:16:23.649Z,19.50
2023-04-22T11:18:52.453Z,20.30
2023-04-22T11:21:22.524Z,20.50
2023-04-22T11:23:53.024Z,21.10
2023-04-22T11:26:35.431Z,21.40
2023-04-22T11:29:06.060Z,21.80
2023-04-22T11:31:36.643Z,21.40
2023-04-22T11:34:05.522Z,21.60
2023-04-22T11:36:34.649Z,21.20
2023-04-22T11:39:03.295Z,21.50
2023-04-22T11:41:31.793Z,21.20
2023-04-22T11:44:02.449Z,21.80
2023-04-22T11:46:38.525Z,22.60
2023-04-22T11:49:17.798Z,22.40
2023-04-22T11:51:56.776Z,21.70
2023-04-22T11:54:35.662Z,21.20
2023-04-22T11:57:07.259Z,21.40
2023-04-22T11:59:36.114Z,21.80
2023-04-22T12:02:08.649Z,20.30
2023-04-22T12:04:39.288Z,20.00
2023-04-22T12:07:08.569Z,20.50
2023-04-22T12:09:37.790Z,20.60
2023-04-22T12:12:07.219Z,19.50
2023-04-22T12:14:37.283Z,20.70
2023-04-22T12:17:12.098Z,19.90
2023-04-22T12:19:41.475Z,21.30
2023-04-22T12:22:10.591Z,21.10
2023-04-22T12:24:46.377Z,21.50
2023-04-22T12:27:15.517Z,22.80
2023-04-22T12:29:52.630Z,20.00
2023-04-22T12:32:24.967Z,21.70
2023-04-22T12:34:53.976Z,20.80
2023-04-22T12:37:23.101Z,21.10
2023-04-22T12:39:52.190Z,20.40
2023-04-22T12:42:20.874Z,20.00
2023-04-22T12:44:49.668Z,21.20
2023-04-22T12:47:19.219Z,21.10
2023-04-22T12:49:49.720Z,20.90
2023-04-22T12:52:18.482Z,21.30
2023-04-22T12:54:47.477Z,21.10
2023-04-22T12:57:16.008Z,23.50
2023-04-22T12:59:47.266Z,22.20
2023-04-22T13:02:16.136Z,24.20
2023-04-22T13:04:45.782Z,22.20
2023-04-22T13:07:17.484Z,22.40
2023-04-22T13:09:46.633Z,22.70
2023-04-22T13:12:15.526Z,21.30
2023-04-22T13:14:44.428Z,21.70
2023-04-22T13:17:12.980Z,21.30
2023-04-22T13:19:41.845Z,20.80
2023-04-22T13:22:11.687Z,20.60
2023-04-22T13:24:41.980Z,21.30
2023-04-22T13:27:11.157Z,21.40
2023-04-22T13:29:40.382Z,21.10
2023-04-22T13:32:09.763Z,20.50
2023-04-22T13:34:40.310Z,21.00
2023-04-22T13:37:09.604Z,20.90
2023-04-22T13:39:38.385Z,21.60
2023-04-22T13:42:08.868Z,21.10
2023-04-22T13:44:37.678Z,20.70
2023-04-22T13:47:06.338Z,22.10
2023-04-22T13:49:34.981Z,21.70
2023-04-22T13:52:03.922Z,21.10
2023-04-22T13:54:32.815Z,21.70
2023-04-22T13:57:03.113Z,21.10
2023-04-22T13:59:37.082Z,21.00
2023-04-22T14:02:06.046Z,21.50
2023-04-22T14:04:34.984Z,20.70
2023-04-22T14:07:05.096Z,20.60
2023-04-22T14:09:34.601Z,21.00
2023-04-22T14:12:03.636Z,22.50
2023-04-22T14:14:33.630Z,21.20
2023-04-22T14:17:02.763Z,22.70
2023-04-22T14:19:32.615Z,22.30
2023-04-22T14:22:01.149Z,21.90
2023-04-22T14:24:30.142Z,21.90
2023-04-22T14:27:01.550Z,21.40
2023-04-22T14:29:31.117Z,21.10
2023-04-22T14:32:01.356Z,20.50
2023-04-22T14:34:30.160Z,22.40
2023-04-22T14:36:59.503Z,21.70
2023-04-22T14:39:28.157Z,21.20
2023-04-22T14:41:57.988Z,22.70
2023-04-22T14:44:26.911Z,22.30
2023-04-22T14:46:55.768Z,21.80
2023-04-22T14:49:26.196Z,22.40
2023-04-22T14:51:54.938Z,23.30
2023-04-22T14:54:24.018Z,21.30
2023-04-22T14:56:55.416Z,21.60
2023-04-22T14:59:24.502Z,21.90
2023-04-22T15:01:53.348Z,22.10
2023-04-22T15:04:22.463Z,22.00
2023-04-22T15:06:57.301Z,22.10
2023-04-22T15:09:25.901Z,21.30
2023-04-22T15:11:56.502Z,23.50
2023-04-22T15:14:25.130Z,22.10
2023-04-22T15:16:54.036Z,23.60
2023-04-22T15:19:22.678Z,23.80
2023-04-22T15:21:53.011Z,23.90
2023-04-22T15:24:21.989Z,23.20
2023-04-22T15:26:51.217Z,22.20
2023-04-22T15:29:20.380Z,22.40
2023-04-22T15:31:49.180Z,22.70
2023-04-22T15:34:18.022Z,22.50
2023-04-22T15:36:47.143Z,23.00
2023-04-22T15:39:17.686Z,23.00
2023-04-22T15:41:46.567Z,22.40
2023-04-22T15:44:16.203Z,24.50
2023-04-22T15:46:46.452Z,23.60
2023-04-22T15:49:15.877Z,24.50
2023-04-22T15:51:44.692Z,23.70
2023-04-22T15:54:14.051Z,24.30
2023-04-22T15:56:44.080Z,25.70
2023-04-22T15:59:13.062Z,25.30
2023-04-22T16:01:43.714Z,25.70
2023-04-22T16:04:14.216Z,24.60
2023-04-22T16:06:43.054Z,25.30
2023-04-22T16:09:11.735Z,25.00
2023-04-22T16:11:40.412Z,25.70
2023-04-22T16:14:11.200Z,26.40
2023-04-22T16:16:41.108Z,26.10
2023-04-22T16:19:10.227Z,25.60
2023-04-22T16:21:38.933Z,26.00
2023-04-22T16:24:08.073Z,25.40
2023-04-22T16:26:36.592Z,25.80
2023-04-22T16:29:05.366Z,26.50
2023-04-22T16:31:36.075Z,26.80
2023-04-22T16:34:04.904Z,26.60
2023-04-22T16:36:33.789Z,26.20
2023-04-22T16:39:02.676Z,27.10
2023-04-22T16:41:31.901Z,27.50
2023-04-22T16:44:00.937Z,28.60
2023-04-22T16:46:29.792Z,28.50
2023-04-22T16:49:00.040Z,28.30
2023-04-22T16:51:28.946Z,28.60
2023-04-22T16:53:57.760Z,29.10
2023-04-22T16:56:26.538Z,29.10
2023-04-22T16:58:55.187Z,28.80
2023-04-22T17:01:23.775Z,28.80
2023-04-22T17:03:52.778Z,28.70
2023-04-22T17:06:22.784Z,29.20
2023-04-22T17:08:52.498Z,29.60
2023-04-22T17:11:20.925Z,30.40
2023-04-22T17:13:49.685Z,32.10
2023-04-22T17:16:18.358Z,32.20
2023-04-22T17:18:47.861Z,34.00
2023-04-22T17:21:17.450Z,34.60
2023-04-22T17:23:47.751Z,36.60
2023-04-22T17:26:16.313Z,35.80
2023-04-22T17:28:45.806Z,38.20
2023-04-22T17:31:14.421Z,38.40
2023-04-22T17:33:42.988Z,39.50
2023-04-22T17:36:11.513Z,40.10
2023-04-22T17:38:40.963Z,40.20
2023-04-22T17:41:10.974Z,41.10
2023-04-22T17:43:39.808Z,41.50
2023-04-22T17:46:09.308Z,41.90
2023-04-22T17:48:38.547Z,41.70
2023-04-22T17:51:07.501Z,42.90
2023-04-22T17:53:37.411Z,43.50
2023-04-22T17:56:06.069Z,44.00
2023-04-22T17:58:38.461Z,44.70
2023-04-22T18:01:07.643Z,46.00
2023-04-22T18:03:37.012Z,46.80
2023-04-22T18:06:05.926Z,47.20
2023-04-22T18:08:34.569Z,48.10
2023-04-22T18:11:03.241Z,48.80
2023-04-22T18:13:31.909Z,49.30
2023-04-22T18:16:02.085Z,49.90
2023-04-22T18:18:30.762Z,50.50
2023-04-22T18:21:00.715Z,51.10
2023-04-22T18:23:30.393Z,51.60
2023-04-22T18:25:58.882Z,51.90
2023-04-22T18:28:27.409Z,52.30
2023-04-22T18:30:55.864Z,52.50
2023-04-22T18:33:26.290Z,52.70
2023-04-22T18:35:54.892Z,53.30
2023-04-22T18:38:23.334Z,53.90
2023-04-22T18:40:52.381Z,54.20
2023-04-22T18:43:21.294Z,54.60
2023-04-22T18:45:50.778Z,54.70
2023-04-22T18:48:20.356Z,55.20
2023-04-22T18:50:50.422Z,55.70
2023-04-22T18:53:18.870Z,56.00
2023-04-22T18:55:47.731Z,56.20
2023-04-22T18:58:16.306Z,56.40
2023-04-22T19:00:44.913Z,56.50
2023-04-22T19:03:13.492Z,57.20
2023-04-22T19:05:43.337Z,56.80
2023-04-22T19:08:13.305Z,57.00
2023-04-22T19:10:42.080Z,57.40
2023-04-22T19:13:22.316Z,57.80
2023-04-22T19:15:57.442Z,58.50
2023-04-22T19:18:26.488Z,58.60
2023-04-22T19:20:54.946Z,59.00
2023-04-22T19:23:25.084Z,59.00
2023-04-22T19:25:53.949Z,59.10
2023-04-22T19:28:22.455Z,59.30
2023-04-22T19:30:52.017Z,59.50
2023-04-22T19:33:20.505Z,59.70
2023-04-22T19:35:49.228Z,59.70
2023-04-22T19:38:19.122Z,59.80
2023-04-22T19:40:49.246Z,59.80
2023-04-22T19:43:19.268Z,60.20
2023-04-22T19:45:47.717Z,60.20
2023-04-22T19:48:17.062Z,60.30
2023-04-22T19:50:45.855Z,60.70
2023-04-22T19:53:15.330Z,60.50
2023-04-22T19:55:44.726Z,61.40
2023-04-22T19:58:15.622Z,61.60
2023-04-22T20:00:45.067Z,61.60
2023-04-22T20:03:14.957Z,61.50
2023-04-22T20:05:44.861Z,62.50
2023-04-22T20:08:14.219Z,63.40
2023-04-22T20:10:43.164Z,63.40
2023-04-22T20:13:12.164Z,63.90
2023-04-22T20:15:43.039Z,64.10
2023-04-22T20:18:11.978Z,63.80
2023-04-22T20:20:44.935Z,63.90
2023-04-22T20:23:16.267Z,63.70
2023-04-22T20:25:45.668Z,64.30
2023-04-22T20:28:15.245Z,64.00
2023-04-22T20:30:45.596Z,64.50
2023-04-22T20:33:16.721Z,64.80
2023-04-22T20:35:47.967Z,64.80
2023-04-22T20:38:19.328Z,64.80
2023-04-22T20:40:48.711Z,65.10
2023-04-22T20:43:17.386Z,65.00
2023-04-22T20:45:47.877Z,65.40
2023-04-22T20:48:16.632Z,65.60
2023-04-22T20:50:46.198Z,65.70
2023-04-22T20:53:14.885Z,65.40
2023-04-22T20:55:43.588Z,65.70
2023-04-22T20:58:12.482Z,65.60
2023-04-22T21:00:41.126Z,66.10
2023-04-22T21:03:11.603Z,65.90
2023-04-22T21:05:43.914Z,65.90
2023-04-22T21:08:23.266Z,63.90
2023-04-22T21:10:53.152Z,61.90
2023-04-22T21:13:22.656Z,61.90
2023-04-22T21:15:58.916Z,59.90
2023-04-22T21:18:30.307Z,58.70
2023-04-22T21:20:59.913Z,56.60
2023-04-22T21:23:28.807Z,55.30
2023-04-22T21:26:00.447Z,54.40
2023-04-22T21:28:30.031Z,54.70
2023-04-22T21:30:59.251Z,53.90
2023-04-22T21:33:29.669Z,52.60
2023-04-22T21:35:58.157Z,51.80
2023-04-22T21:38:26.918Z,50.80
2023-04-22T21:40:55.717Z,50.20
2023-04-22T21:43:24.266Z,50.10
2023-04-22T21:45:53.063Z,49.60
2023-04-22T21:48:21.895Z,49.70
2023-04-22T21:50:52.325Z,48.90
2023-04-22T21:53:22.406Z,49.10
2023-04-22T21:55:51.231Z,48.80
2023-04-22T21:58:19.707Z,48.80
2023-04-22T22:00:50.681Z,48.90
2023-04-22T22:03:19.418Z,48.40
2023-04-22T22:05:48.428Z,48.60
2023-04-22T22:08:18.857Z,48.60
2023-04-22T22:10:48.305Z,48.60
2023-04-22T22:13:16.734Z,48.70
2023-04-22T22:15:45.350Z,48.90
2023-04-22T22:18:14.214Z,48.90
2023-04-22T22:20:44.496Z,48.80
2023-04-22T22:23:12.977Z,48.40
2023-04-22T22:25:43.263Z,48.70
2023-04-22T22:28:12.100Z,49.60
2023-04-22T22:30:40.970Z,49.20
2023-04-22T22:33:10.237Z,49.60
2023-04-22T22:35:38.816Z,49.50
2023-04-22T22:38:07.606Z,49.90
2023-04-22T22:40:36.276Z,49.40
2023-04-22T22:43:06.491Z,49.60
2023-04-22T22:45:35.483Z,50.10
2023-04-22T22:48:04.469Z,49.90
2023-04-22T22:50:33.351Z,50.00
2023-04-22T22:53:02.092Z,50.30
2023-04-22T22:55:30.621Z,50.00
2023-04-22T22:57:59.396Z,49.90
2023-04-22T23:00:29.378Z,49.90
2023-04-22T23:02:58.343Z,49.50
2023-04-22T23:05:26.803Z,49.90
2023-04-22T23:07:55.625Z,49.70
2023-04-22T23:10:24.381Z,49.50
2023-04-22T23:12:53.300Z,49.30
2023-04-22T23:15:22.090Z,49.90
2023-04-22T23:17:53.137Z,49.60
2023-04-22T23:20:23.204Z,49.70
2023-04-22T23:22:52.108Z,49.80
2023-04-22T23:25:21.279Z,50.10
2023-04-22T23:27:50.717Z,50.20
2023-04-22T23:30:20.052Z,50.30
2023-04-22T23:32:49.956Z,50.60
2023-04-22T23:35:21.459Z,50.40
2023-04-22T23:37:52.902Z,50.80
2023-04-22T23:40:21.941Z,51.00
2023-04-22T23:42:50.432Z,51.20
2023-04-22T23:45:19.349Z,51.30
2023-04-22T23:47:48.486Z,51.50
2023-04-22T23:50:19.044Z,51.60
2023-04-22T23:52:48.966Z,51.70
2023-04-22T23:55:17.873Z,51.60
2023-04-22T23:57:46.994Z,51.70
